Accueil
METAR-TAF:

METAR-TAF

Aéroports :

Aéroport de Toulouse-Blagnac

Toulouse, France

latitude: 43-38N, longitude: 001-22E, altitude: 152 m

Observation

Le bulletin a été fait il y a 12 minutes, à 18:00 UTC
Vent 3 kt de direction variable
Température 28°C
Humidité 40%
Pression 1017 hPa
Visibilité 10 km ou plus
pas de nuages en-dessous de 1500 mètres et pas de cumulonimbus.

METAR: LFBO 151800Z AUTO VRB03KT CAVOK 28/13 Q1017 NOSIG

Heure: 20:12 (18:12 UTC)

Prévision

Le bulletin a été fait il y a 1 heure et 12 minutes, à 17:00 UTC
Prévision valable du 15 à 18 UTC au 16 à 24 UTC
Vent 6 kt de nord/nord-ouest
Visibilité 10 km ou plus
pas de nuages en-dessous de 1500 mètres et pas de cumulonimbus.
Evoluant progressivement
du 15 à 19 UTC au 15 à 21 UTC
Vent 2 kt de direction variable

TAF: LFBO 151700Z 1518/1624 34006KT CAVOK BECMG 1519/1521 VRB02KT

Observations et prévisions météorologiques de plus de 4000 aéroports (messages METAR et TAF).

Les stations disponibles sont représentées par des disques jaunes et rouges sur la carte.

Passer la souris dessus pour voir le nom de la station.

Cliquer dessus pour voir les observations et prévisions météorologiques.

Pour changer de carte: cliquez sur les boutons verts avec une croix noire pour zoomer, sur le bouton vert avec un tiret pour effectuer un zoom arrière, ou sur les flèches vertes pour les cartes adjacentes.


METAR-TAF: